sensor_id;sensor_type;location;lat;lon;timestamp;temperature;humidity
28520;DHT22;15732;48.534;20.382;2023-09-12T00:02:26;18.10;99.90
28520;DHT22;15732;48.534;20.382;2023-09-12T00:04:53;18.00;99.90
28520;DHT22;15732;48.534;20.382;2023-09-12T00:07:20;18.00;99.90
28520;DHT22;15732;48.534;20.382;2023-09-12T00:09:48;18.00;99.90
28520;DHT22;15732;48.534;20.382;2023-09-12T00:12:16;18.00;99.90
28520;DHT22;15732;48.534;20.382;2023-09-12T00:14:43;18.00;99.90
28520;DHT22;15732;48.534;20.382;2023-09-12T00:17:14;18.00;99.90
28520;DHT22;15732;48.534;20.382;2023-09-12T00:19:42;17.90;99.90
28520;DHT22;15732;48.534;20.382;2023-09-12T00:22:09;17.90;99.90
28520;DHT22;15732;48.534;20.382;2023-09-12T00:24:36;17.80;99.90
28520;DHT22;15732;48.534;20.382;2023-09-12T00:27:04;17.80;99.90
28520;DHT22;15732;48.534;20.382;2023-09-12T00:29:32;17.80;99.90
28520;DHT22;15732;48.534;20.382;2023-09-12T00:32:00;17.80;99.90
28520;DHT22;15732;48.534;20.382;2023-09-12T00:34:26;17.80;99.90
28520;DHT22;15732;48.534;20.382;2023-09-12T00:36:54;17.80;99.90
28520;DHT22;15732;48.534;20.382;2023-09-12T00:39:21;17.70;99.90
28520;DHT22;15732;48.534;20.382;2023-09-12T00:41:49;17.70;99.90
28520;DHT22;15732;48.534;20.382;2023-09-12T00:44:16;17.70;99.90
28520;DHT22;15732;48.534;20.382;2023-09-12T00:46:44;17.60;99.90
28520;DHT22;15732;48.534;20.382;2023-09-12T00:49:13;17.60;99.90
28520;DHT22;15732;48.534;20.382;2023-09-12T00:51:40;17.60;99.90
28520;DHT22;15732;48.534;20.382;2023-09-12T00:54:10;17.60;99.90
28520;DHT22;15732;48.534;20.382;2023-09-12T00:56:37;17.50;99.90
28520;DHT22;15732;48.534;20.382;2023-09-12T00:59:05;17.60;99.90
28520;DHT22;15732;48.534;20.382;2023-09-12T01:01:32;17.60;99.90
28520;DHT22;15732;48.534;20.382;2023-09-12T01:03:59;17.60;99.90
28520;DHT22;15732;48.534;20.382;2023-09-12T01:06:32;17.60;99.90
28520;DHT22;15732;48.534;20.382;2023-09-12T01:09:00;17.60;99.90
28520;DHT22;15732;48.534;20.382;2023-09-12T01:11:27;17.50;99.90
28520;DHT22;15732;48.534;20.382;2023-09-12T01:13:55;17.40;99.90
28520;DHT22;15732;48.534;20.382;2023-09-12T01:16:22;17.40;99.90
28520;DHT22;15732;48.534;20.382;2023-09-12T01:18:50;17.40;99.90
28520;DHT22;15732;48.534;20.382;2023-09-12T01:24:36;17.40;99.90
28520;DHT22;15732;48.534;20.382;2023-09-12T01:27:27;17.40;99.90
28520;DHT22;15732;48.534;20.382;2023-09-12T01:29:57;17.40;99.90
28520;DHT22;15732;48.534;20.382;2023-09-12T01:32:24;17.40;99.90
28520;DHT22;15732;48.534;20.382;2023-09-12T01:34:51;17.30;99.90
28520;DHT22;15732;48.534;20.382;2023-09-12T01:37:19;17.20;99.90
28520;DHT22;15732;48.534;20.382;2023-09-12T01:39:46;17.10;99.90
28520;DHT22;15732;48.534;20.382;2023-09-12T01:42:15;17.10;99.90
28520;DHT22;15732;48.534;20.382;2023-09-12T01:44:44;17.20;99.90
28520;DHT22;15732;48.534;20.382;2023-09-12T01:47:12;17.20;99.90
28520;DHT22;15732;48.534;20.382;2023-09-12T01:49:44;17.20;99.90
28520;DHT22;15732;48.534;20.382;2023-09-12T01:52:12;17.30;99.90
28520;DHT22;15732;48.534;20.382;2023-09-12T01:54:41;17.20;99.90
28520;DHT22;15732;48.534;20.382;2023-09-12T01:57:09;17.20;99.90
28520;DHT22;15732;48.534;20.382;2023-09-12T01:59:36;17.00;99.90
28520;DHT22;15732;48.534;20.382;2023-09-12T02:02:08;17.10;99.90
28520;DHT22;15732;48.534;20.382;2023-09-12T02:04:35;17.00;99.90
28520;DHT22;15732;48.534;20.382;2023-09-12T02:07:07;17.00;99.90
28520;DHT22;15732;48.534;20.382;2023-09-12T02:09:38;17.00;99.90
28520;DHT22;15732;48.534;20.382;2023-09-12T02:12:06;17.10;99.90
28520;DHT22;15732;48.534;20.382;2023-09-12T02:14:34;17.10;99.90
28520;DHT22;15732;48.534;20.382;2023-09-12T02:17:05;17.10;99.90
28520;DHT22;15732;48.534;20.382;2023-09-12T02:19:32;17.10;99.90
28520;DHT22;15732;48.534;20.382;2023-09-12T02:22:03;17.00;99.90
28520;DHT22;15732;48.534;20.382;2023-09-12T02:24:35;17.00;99.90
28520;DHT22;15732;48.534;20.382;2023-09-12T02:27:03;16.90;99.90
28520;DHT22;15732;48.534;20.382;2023-09-12T02:29:31;16.80;99.90
28520;DHT22;15732;48.534;20.382;2023-09-12T02:31:59;16.80;99.90
28520;DHT22;15732;48.534;20.382;2023-09-12T02:34:30;16.80;99.90
28520;DHT22;15732;48.534;20.382;2023-09-12T02:36:58;16.70;99.90
28520;DHT22;15732;48.534;20.382;2023-09-12T02:39:25;16.70;99.90
28520;DHT22;15732;48.534;20.382;2023-09-12T02:41:53;16.60;99.90
28520;DHT22;15732;48.534;20.382;2023-09-12T02:44:20;16.60;99.90
28520;DHT22;15732;48.534;20.382;2023-09-12T02:46:47;16.70;99.90
28520;DHT22;15732;48.534;20.382;2023-09-12T02:49:15;16.60;99.90
28520;DHT22;15732;48.534;20.382;2023-09-12T02:51:43;16.60;99.90
28520;DHT22;15732;48.534;20.382;2023-09-12T02:54:11;16.70;99.90
28520;DHT22;15732;48.534;20.382;2023-09-12T02:56:38;16.60;99.90
28520;DHT22;15732;48.534;20.382;2023-09-12T02:59:05;16.60;99.90
28520;DHT22;15732;48.534;20.382;2023-09-12T03:01:33;16.70;99.90
28520;DHT22;15732;48.534;20.382;2023-09-12T03:04:00;16.60;99.90
28520;DHT22;15732;48.534;20.382;2023-09-12T03:06:28;16.60;99.90
28520;DHT22;15732;48.534;20.382;2023-09-12T03:08:56;16.60;99.90
28520;DHT22;15732;48.534;20.382;2023-09-12T03:11:26;16.70;99.90
28520;DHT22;15732;48.534;20.382;2023-09-12T03:13:54;16.70;99.90
28520;DHT22;15732;48.534;20.382;2023-09-12T03:16:21;16.70;99.90
28520;DHT22;15732;48.534;20.382;2023-09-12T03:18:50;16.70;99.90
28520;DHT22;15732;48.534;20.382;2023-09-12T03:21:18;16.70;99.90
28520;DHT22;15732;48.534;20.382;2023-09-12T03:23:45;16.80;99.90
28520;DHT22;15732;48.534;20.382;2023-09-12T03:26:12;16.70;99.90
28520;DHT22;15732;48.534;20.382;2023-09-12T03:28:39;16.70;99.90
28520;DHT22;15732;48.534;20.382;2023-09-12T03:31:12;16.50;99.90
28520;DHT22;15732;48.534;20.382;2023-09-12T03:33:41;16.50;99.90
28520;DHT22;15732;48.534;20.382;2023-09-12T03:36:09;16.40;99.90
28520;DHT22;15732;48.534;20.382;2023-09-12T03:38:35;16.40;99.90
28520;DHT22;15732;48.534;20.382;2023-09-12T03:41:02;16.40;99.90
28520;DHT22;15732;48.534;20.382;2023-09-12T03:43:33;16.40;99.90
28520;DHT22;15732;48.534;20.382;2023-09-12T03:46:01;16.40;99.90
28520;DHT22;15732;48.534;20.382;2023-09-12T03:48:32;16.20;99.90
28520;DHT22;15732;48.534;20.382;2023-09-12T03:51:00;16.20;99.90
28520;DHT22;15732;48.534;20.382;2023-09-12T03:53:28;16.20;99.90
28520;DHT22;15732;48.534;20.382;2023-09-12T03:55:57;16.20;99.90
28520;DHT22;15732;48.534;20.382;2023-09-12T03:58:23;16.20;99.90
28520;DHT22;15732;48.534;20.382;2023-09-12T04:00:51;16.10;99.90
28520;DHT22;15732;48.534;20.382;2023-09-12T04:03:18;16.20;99.90
28520;DHT22;15732;48.534;20.382;2023-09-12T04:05:47;16.20;99.90
28520;DHT22;15732;48.534;20.382;2023-09-12T04:08:14;16.20;99.90
28520;DHT22;15732;48.534;20.382;2023-09-12T04:10:42;16.10;99.90
28520;DHT22;15732;48.534;20.382;2023-09-12T04:13:09;16.10;99.90
28520;DHT22;15732;48.534;20.382;2023-09-12T04:15:40;16.20;99.90
28520;DHT22;15732;48.534;20.382;2023-09-12T04:18:07;16.20;99.90
28520;DHT22;15732;48.534;20.382;2023-09-12T04:20:35;16.20;99.90
28520;DHT22;15732;48.534;20.382;2023-09-12T04:23:02;16.10;99.90
28520;DHT22;15732;48.534;20.382;2023-09-12T04:25:49;16.10;99.90
28520;DHT22;15732;48.534;20.382;2023-09-12T04:28:16;16.20;99.90
28520;DHT22;15732;48.534;20.382;2023-09-12T04:30:43;16.10;99.90
28520;DHT22;15732;48.534;20.382;2023-09-12T04:33:11;16.10;99.90
28520;DHT22;15732;48.534;20.382;2023-09-12T04:35:39;16.20;99.90
28520;DHT22;15732;48.534;20.382;2023-09-12T04:38:06;16.20;99.90
28520;DHT22;15732;48.534;20.382;2023-09-12T04:40:34;16.20;99.90
28520;DHT22;15732;48.534;20.382;2023-09-12T04:43:01;16.00;99.90
28520;DHT22;15732;48.534;20.382;2023-09-12T04:45:28;16.10;99.90
28520;DHT22;15732;48.534;20.382;2023-09-12T04:47:55;16.00;99.90
28520;DHT22;15732;48.534;20.382;2023-09-12T04:50:23;16.00;99.90
28520;DHT22;15732;48.534;20.382;2023-09-12T04:52:50;16.00;99.90
28520;DHT22;15732;48.534;20.382;2023-09-12T04:55:21;16.10;99.90
28520;DHT22;15732;48.534;20.382;2023-09-12T04:57:52;16.10;99.90
28520;DHT22;15732;48.534;20.382;2023-09-12T05:00:20;16.20;99.90
28520;DHT22;15732;48.534;20.382;2023-09-12T05:02:47;16.30;99.90
28520;DHT22;15732;48.534;20.382;2023-09-12T05:05:14;16.20;99.90
28520;DHT22;15732;48.534;20.382;2023-09-12T05:07:42;16.20;99.90
28520;DHT22;15732;48.534;20.382;2023-09-12T05:10:09;16.30;99.90
28520;DHT22;15732;48.534;20.382;2023-09-12T05:12:37;16.30;99.90
28520;DHT22;15732;48.534;20.382;2023-09-12T05:15:08;16.30;99.90
28520;DHT22;15732;48.534;20.382;2023-09-12T05:17:36;16.30;99.90
28520;DHT22;15732;48.534;20.382;2023-09-12T05:20:05;16.20;99.90
28520;DHT22;15732;48.534;20.382;2023-09-12T05:22:34;16.20;99.90
28520;DHT22;15732;48.534;20.382;2023-09-12T05:25:01;16.30;99.90
28520;DHT22;15732;48.534;20.382;2023-09-12T05:27:28;16.30;99.90
28520;DHT22;15732;48.534;20.382;2023-09-12T05:29:55;16.40;99.90
28520;DHT22;15732;48.534;20.382;2023-09-12T05:32:22;16.40;99.90
28520;DHT22;15732;48.534;20.382;2023-09-12T05:34:50;16.40;99.90
28520;DHT22;15732;48.534;20.382;2023-09-12T05:37:17;16.40;99.90
28520;DHT22;15732;48.534;20.382;2023-09-12T05:39:45;16.50;99.90
28520;DHT22;15732;48.534;20.382;2023-09-12T05:42:13;16.50;99.90
28520;DHT22;15732;48.534;20.382;2023-09-12T05:44:50;16.50;99.90
28520;DHT22;15732;48.534;20.382;2023-09-12T05:47:20;16.50;99.90
28520;DHT22;15732;48.534;20.382;2023-09-12T05:49:47;16.60;99.90
28520;DHT22;15732;48.534;20.382;2023-09-12T05:52:14;16.70;99.90
28520;DHT22;15732;48.534;20.382;2023-09-12T05:54:45;16.60;99.90
28520;DHT22;15732;48.534;20.382;2023-09-12T05:57:12;16.70;99.90
28520;DHT22;15732;48.534;20.382;2023-09-12T05:59:40;16.80;99.90
28520;DHT22;15732;48.534;20.382;2023-09-12T06:02:07;16.90;99.90
28520;DHT22;15732;48.534;20.382;2023-09-12T06:04:36;17.00;99.90
28520;DHT22;15732;48.534;20.382;2023-09-12T06:07:03;17.00;99.90
28520;DHT22;15732;48.534;20.382;2023-09-12T06:09:30;17.10;99.90
28520;DHT22;15732;48.534;20.382;2023-09-12T06:11:58;17.20;99.90
28520;DHT22;15732;48.534;20.382;2023-09-12T06:14:25;17.30;99.90
28520;DHT22;15732;48.534;20.382;2023-09-12T06:16:52;17.40;99.90
28520;DHT22;15732;48.534;20.382;2023-09-12T06:19:20;17.50;99.90
28520;DHT22;15732;48.534;20.382;2023-09-12T06:21:47;17.50;99.90
28520;DHT22;15732;48.534;20.382;2023-09-12T06:24:19;17.60;99.90
28520;DHT22;15732;48.534;20.382;2023-09-12T06:26:50;17.70;99.90
28520;DHT22;15732;48.534;20.382;2023-09-12T06:29:18;17.90;99.90
28520;DHT22;15732;48.534;20.382;2023-09-12T06:31:45;18.00;99.90
28520;DHT22;15732;48.534;20.382;2023-09-12T06:34:12;18.10;99.90
28520;DHT22;15732;48.534;20.382;2023-09-12T06:36:39;18.20;99.90
28520;DHT22;15732;48.534;20.382;2023-09-12T06:39:11;18.20;99.90
28520;DHT22;15732;48.534;20.382;2023-09-12T06:41:38;18.30;99.90
28520;DHT22;15732;48.534;20.382;2023-09-12T06:44:05;18.40;99.90
28520;DHT22;15732;48.534;20.382;2023-09-12T06:46:33;18.50;99.90
28520;DHT22;15732;48.534;20.382;2023-09-12T06:49:04;18.60;99.90
28520;DHT22;15732;48.534;20.382;2023-09-12T06:51:31;18.70;99.90
28520;DHT22;15732;48.534;20.382;2023-09-12T06:53:58;18.80;99.90
28520;DHT22;15732;48.534;20.382;2023-09-12T06:56:26;19.00;99.90
28520;DHT22;15732;48.534;20.382;2023-09-12T06:58:54;19.10;99.90
28520;DHT22;15732;48.534;20.382;2023-09-12T07:01:21;19.20;99.90
28520;DHT22;15732;48.534;20.382;2023-09-12T07:03:49;19.30;99.90
28520;DHT22;15732;48.534;20.382;2023-09-12T07:06:20;19.30;99.90
28520;DHT22;15732;48.534;20.382;2023-09-12T07:08:51;19.40;99.90
28520;DHT22;15732;48.534;20.382;2023-09-12T07:11:19;19.60;99.90
28520;DHT22;15732;48.534;20.382;2023-09-12T07:13:46;19.70;99.90
28520;DHT22;15732;48.534;20.382;2023-09-12T07:16:13;19.80;99.90
28520;DHT22;15732;48.534;20.382;2023-09-12T07:18:40;19.90;99.90
28520;DHT22;15732;48.534;20.382;2023-09-12T07:21:07;20.00;99.90
28520;DHT22;15732;48.534;20.382;2023-09-12T07:23:34;20.10;99.90
28520;DHT22;15732;48.534;20.382;2023-09-12T07:26:02;20.20;99.90
28520;DHT22;15732;48.534;20.382;2023-09-12T07:28:33;20.30;99.90
28520;DHT22;15732;48.534;20.382;2023-09-12T07:31:00;20.40;99.90
28520;DHT22;15732;48.534;20.382;2023-09-12T07:33:27;20.60;99.90
28520;DHT22;15732;48.534;20.382;2023-09-12T07:35:54;20.70;99.90
28520;DHT22;15732;48.534;20.382;2023-09-12T07:38:25;20.80;99.90
28520;DHT22;15732;48.534;20.382;2023-09-12T07:40:53;20.80;99.90
28520;DHT22;15732;48.534;20.382;2023-09-12T07:43:24;21.00;99.90
28520;DHT22;15732;48.534;20.382;2023-09-12T07:45:56;21.10;99.90
28520;DHT22;15732;48.534;20.382;2023-09-12T07:48:24;21.10;99.90
28520;DHT22;15732;48.534;20.382;2023-09-12T07:50:54;21.20;99.90
28520;DHT22;15732;48.534;20.382;2023-09-12T07:53:21;21.30;99.90
28520;DHT22;15732;48.534;20.382;2023-09-12T07:55:49;21.50;99.90
28520;DHT22;15732;48.534;20.382;2023-09-12T07:58:18;21.60;99.90
28520;DHT22;15732;48.534;20.382;2023-09-12T08:00:48;21.80;99.90
28520;DHT22;15732;48.534;20.382;2023-09-12T08:03:15;22.00;99.90
28520;DHT22;15732;48.534;20.382;2023-09-12T08:05:43;22.10;99.90
28520;DHT22;15732;48.534;20.382;2023-09-12T08:08:10;22.30;99.90
28520;DHT22;15732;48.534;20.382;2023-09-12T08:10:37;22.40;99.90
28520;DHT22;15732;48.534;20.382;2023-09-12T08:13:05;22.50;99.90
28520;DHT22;15732;48.534;20.382;2023-09-12T08:15:32;22.50;99.90
28520;DHT22;15732;48.534;20.382;2023-09-12T08:17:59;22.60;99.90
28520;DHT22;15732;48.534;20.382;2023-09-12T08:20:27;22.70;99.90
28520;DHT22;15732;48.534;20.382;2023-09-12T08:22:54;22.70;99.90
28520;DHT22;15732;48.534;20.382;2023-09-12T08:25:22;22.90;99.90
28520;DHT22;15732;48.534;20.382;2023-09-12T08:27:54;22.90;99.90
28520;DHT22;15732;48.534;20.382;2023-09-12T08:30:21;23.00;99.90
28520;DHT22;15732;48.534;20.382;2023-09-12T08:32:49;23.10;99.90
28520;DHT22;15732;48.534;20.382;2023-09-12T08:35:20;23.30;99.90
28520;DHT22;15732;48.534;20.382;2023-09-12T08:37:51;23.40;99.90
28520;DHT22;15732;48.534;20.382;2023-09-12T08:40:22;23.50;99.90
28520;DHT22;15732;48.534;20.382;2023-09-12T08:42:52;23.70;99.90
28520;DHT22;15732;48.534;20.382;2023-09-12T08:45:23;23.80;99.90
28520;DHT22;15732;48.534;20.382;2023-09-12T08:47:53;23.90;99.90
28520;DHT22;15732;48.534;20.382;2023-09-12T08:50:20;24.00;99.90
28520;DHT22;15732;48.534;20.382;2023-09-12T08:52:47;24.10;99.90
28520;DHT22;15732;48.534;20.382;2023-09-12T08:55:15;24.20;99.90
28520;DHT22;15732;48.534;20.382;2023-09-12T08:57:44;24.40;99.90
28520;DHT22;15732;48.534;20.382;2023-09-12T09:00:14;24.50;99.90
28520;DHT22;15732;48.534;20.382;2023-09-12T09:02:42;24.50;99.90
28520;DHT22;15732;48.534;20.382;2023-09-12T09:05:14;24.60;99.90
28520;DHT22;15732;48.534;20.382;2023-09-12T09:07:42;24.70;99.90
28520;DHT22;15732;48.534;20.382;2023-09-12T09:10:15;24.80;99.90
28520;DHT22;15732;48.534;20.382;2023-09-12T09:12:45;24.80;99.90
28520;DHT22;15732;48.534;20.382;2023-09-12T09:15:23;24.90;99.90
28520;DHT22;15732;48.534;20.382;2023-09-12T09:17:55;25.00;99.90
28520;DHT22;15732;48.534;20.382;2023-09-12T09:20:40;25.10;99.90
28520;DHT22;15732;48.534;20.382;2023-09-12T09:23:09;25.10;99.90
28520;DHT22;15732;48.534;20.382;2023-09-12T09:25:40;25.20;99.90
28520;DHT22;15732;48.534;20.382;2023-09-12T09:28:18;25.20;99.90
28520;DHT22;15732;48.534;20.382;2023-09-12T09:30:50;25.30;99.90
28520;DHT22;15732;48.534;20.382;2023-09-12T09:33:21;25.30;99.90
28520;DHT22;15732;48.534;20.382;2023-09-12T09:35:49;25.30;99.90
28520;DHT22;15732;48.534;20.382;2023-09-12T09:38:19;25.40;99.90
28520;DHT22;15732;48.534;20.382;2023-09-12T09:40:47;25.50;99.90
28520;DHT22;15732;48.534;20.382;2023-09-12T09:43:19;25.50;99.90
28520;DHT22;15732;48.534;20.382;2023-09-12T09:45:46;25.50;99.90
28520;DHT22;15732;48.534;20.382;2023-09-12T09:48:23;25.60;99.90
28520;DHT22;15732;48.534;20.382;2023-09-12T09:50:51;25.60;99.90
28520;DHT22;15732;48.534;20.382;2023-09-12T09:53:27;25.60;99.90
28520;DHT22;15732;48.534;20.382;2023-09-12T09:56:14;25.70;99.90
28520;DHT22;15732;48.534;20.382;2023-09-12T09:59:04;25.70;99.90
28520;DHT22;15732;48.534;20.382;2023-09-12T10:01:36;25.80;99.90
28520;DHT22;15732;48.534;20.382;2023-09-12T10:04:04;25.80;99.90
28520;DHT22;15732;48.534;20.382;2023-09-12T10:06:33;25.90;99.90
28520;DHT22;15732;48.534;20.382;2023-09-12T10:09:05;25.90;99.90
28520;DHT22;15732;48.534;20.382;2023-09-12T10:11:33;25.90;99.90
28520;DHT22;15732;48.534;20.382;2023-09-12T10:14:04;25.90;99.90
28520;DHT22;15732;48.534;20.382;2023-09-12T10:16:33;26.00;99.90
28520;DHT22;15732;48.534;20.382;2023-09-12T10:21:48;26.00;99.90
28520;DHT22;15732;48.534;20.382;2023-09-12T10:24:16;26.10;99.90
28520;DHT22;15732;48.534;20.382;2023-09-12T10:26:45;26.10;99.90
28520;DHT22;15732;48.534;20.382;2023-09-12T10:29:14;26.10;99.90
28520;DHT22;15732;48.534;20.382;2023-09-12T10:31:46;26.20;99.90
28520;DHT22;15732;48.534;20.382;2023-09-12T10:34:13;26.20;99.90
28520;DHT22;15732;48.534;20.382;2023-09-12T10:36:45;26.30;99.90
28520;DHT22;15732;48.534;20.382;2023-09-12T10:39:14;26.30;99.90
28520;DHT22;15732;48.534;20.382;2023-09-12T10:43:48;26.30;99.90
28520;DHT22;15732;48.534;20.382;2023-09-12T10:46:18;26.40;99.90
28520;DHT22;15732;48.534;20.382;2023-09-12T10:48:46;26.40;99.90
28520;DHT22;15732;48.534;20.382;2023-09-12T10:51:13;26.40;99.90
28520;DHT22;15732;48.534;20.382;2023-09-12T10:53:46;26.50;99.90
28520;DHT22;15732;48.534;20.382;2023-09-12T10:56:17;26.60;99.90
28520;DHT22;15732;48.534;20.382;2023-09-12T11:01:37;26.60;99.90
28520;DHT22;15732;48.534;20.382;2023-09-12T11:06:47;26.70;99.90
28520;DHT22;15732;48.534;20.382;2023-09-12T11:09:24;26.60;99.90
28520;DHT22;15732;48.534;20.382;2023-09-12T11:11:58;26.60;99.90
28520;DHT22;15732;48.534;20.382;2023-09-12T11:14:25;26.70;99.90
28520;DHT22;15732;48.534;20.382;2023-09-12T11:19:44;26.60;99.90
28520;DHT22;15732;48.534;20.382;2023-09-12T11:22:28;26.50;99.90
28520;DHT22;15732;48.534;20.382;2023-09-12T11:24:55;26.50;99.90
28520;DHT22;15732;48.534;20.382;2023-09-12T11:27:25;26.50;99.90
28520;DHT22;15732;48.534;20.382;2023-09-12T11:30:04;26.50;99.90
28520;DHT22;15732;48.534;20.382;2023-09-12T11:32:32;26.40;99.90
28520;DHT22;15732;48.534;20.382;2023-09-12T11:35:00;26.40;99.90
28520;DHT22;15732;48.534;20.382;2023-09-12T11:37:31;26.40;99.90
28520;DHT22;15732;48.534;20.382;2023-09-12T11:42:43;26.40;99.90
28520;DHT22;15732;48.534;20.382;2023-09-12T11:45:10;26.40;99.90
28520;DHT22;15732;48.534;20.382;2023-09-12T11:47:41;26.40;99.90
28520;DHT22;15732;48.534;20.382;2023-09-12T11:50:30;26.40;99.90
28520;DHT22;15732;48.534;20.382;2023-09-12T11:53:09;26.40;99.90
28520;DHT22;15732;48.534;20.382;2023-09-12T11:55:58;26.40;99.90
28520;DHT22;15732;48.534;20.382;2023-09-12T11:58:26;26.30;99.90
28520;DHT22;15732;48.534;20.382;2023-09-12T12:00:58;26.40;99.90
28520;DHT22;15732;48.534;20.382;2023-09-12T12:03:26;26.30;99.90
28520;DHT22;15732;48.534;20.382;2023-09-12T12:05:55;26.30;99.90
28520;DHT22;15732;48.534;20.382;2023-09-12T12:08:22;26.40;99.90
28520;DHT22;15732;48.534;20.382;2023-09-12T12:10:50;26.40;99.90
28520;DHT22;15732;48.534;20.382;2023-09-12T12:13:19;26.40;99.90
28520;DHT22;15732;48.534;20.382;2023-09-12T12:15:50;26.40;99.90
28520;DHT22;15732;48.534;20.382;2023-09-12T12:18:17;26.40;99.90
28520;DHT22;15732;48.534;20.382;2023-09-12T12:20:44;26.40;99.90
28520;DHT22;15732;48.534;20.382;2023-09-12T12:23:11;26.40;99.90
28520;DHT22;15732;48.534;20.382;2023-09-12T12:25:39;26.40;99.90
28520;DHT22;15732;48.534;20.382;2023-09-12T12:28:10;26.50;99.90
28520;DHT22;15732;48.534;20.382;2023-09-12T12:30:41;26.40;99.90
28520;DHT22;15732;48.534;20.382;2023-09-12T12:33:10;26.50;99.90
28520;DHT22;15732;48.534;20.382;2023-09-12T12:35:37;26.50;99.90
28520;DHT22;15732;48.534;20.382;2023-09-12T12:38:04;26.50;99.90
28520;DHT22;15732;48.534;20.382;2023-09-12T12:40:31;26.60;99.90
28520;DHT22;15732;48.534;20.382;2023-09-12T12:43:03;26.60;99.90
28520;DHT22;15732;48.534;20.382;2023-09-12T12:45:30;26.60;99.90
28520;DHT22;15732;48.534;20.382;2023-09-12T12:47:59;26.60;99.90
28520;DHT22;15732;48.534;20.382;2023-09-12T12:50:27;26.60;99.90
28520;DHT22;15732;48.534;20.382;2023-09-12T12:52:54;26.60;99.90
28520;DHT22;15732;48.534;20.382;2023-09-12T12:55:21;26.60;99.90
28520;DHT22;15732;48.534;20.382;2023-09-12T12:57:52;26.60;99.90
28520;DHT22;15732;48.534;20.382;2023-09-12T13:00:20;26.60;99.90
28520;DHT22;15732;48.534;20.382;2023-09-12T13:02:48;26.60;99.90
28520;DHT22;15732;48.534;20.382;2023-09-12T13:05:28;26.70;99.90
28520;DHT22;15732;48.534;20.382;2023-09-12T13:07:56;26.70;99.90
28520;DHT22;15732;48.534;20.382;2023-09-12T13:10:27;26.70;99.90
28520;DHT22;15732;48.534;20.382;2023-09-12T13:12:54;26.70;99.90
28520;DHT22;15732;48.534;20.382;2023-09-12T13:15:22;26.70;99.90
28520;DHT22;15732;48.534;20.382;2023-09-12T13:17:53;26.70;99.90
28520;DHT22;15732;48.534;20.382;2023-09-12T13:20:24;26.70;99.90
28520;DHT22;15732;48.534;20.382;2023-09-12T13:22:52;26.70;99.90
28520;DHT22;15732;48.534;20.382;2023-09-12T13:25:19;26.80;99.90
28520;DHT22;15732;48.534;20.382;2023-09-12T13:27:47;26.80;99.90
28520;DHT22;15732;48.534;20.382;2023-09-12T13:30:18;26.80;99.90
28520;DHT22;15732;48.534;20.382;2023-09-12T13:32:46;26.80;99.90
28520;DHT22;15732;48.534;20.382;2023-09-12T13:35:13;26.80;99.90
28520;DHT22;15732;48.534;20.382;2023-09-12T13:37:40;26.80;99.90
28520;DHT22;15732;48.534;20.382;2023-09-12T13:40:09;26.80;99.90
28520;DHT22;15732;48.534;20.382;2023-09-12T13:42:36;26.80;99.90
28520;DHT22;15732;48.534;20.382;2023-09-12T13:45:06;26.80;99.90
28520;DHT22;15732;48.534;20.382;2023-09-12T13:47:34;26.80;99.90
28520;DHT22;15732;48.534;20.382;2023-09-12T13:50:07;26.80;99.90
28520;DHT22;15732;48.534;20.382;2023-09-12T13:52:35;26.80;99.90
28520;DHT22;15732;48.534;20.382;2023-09-12T13:55:02;26.80;99.90
28520;DHT22;15732;48.534;20.382;2023-09-12T13:57:30;26.80;99.90
28520;DHT22;15732;48.534;20.382;2023-09-12T13:59:57;26.80;99.90
28520;DHT22;15732;48.534;20.382;2023-09-12T14:02:24;26.80;99.90
28520;DHT22;15732;48.534;20.382;2023-09-12T14:04:56;26.90;99.90
28520;DHT22;15732;48.534;20.382;2023-09-12T14:07:23;26.90;99.90
28520;DHT22;15732;48.534;20.382;2023-09-12T14:09:50;26.90;99.90
28520;DHT22;15732;48.534;20.382;2023-09-12T14:12:25;26.90;99.90
28520;DHT22;15732;48.534;20.382;2023-09-12T14:14:52;26.90;99.90
28520;DHT22;15732;48.534;20.382;2023-09-12T14:17:20;26.90;99.90
28520;DHT22;15732;48.534;20.382;2023-09-12T14:19:47;26.90;99.90
28520;DHT22;15732;48.534;20.382;2023-09-12T14:22:14;26.90;99.90
28520;DHT22;15732;48.534;20.382;2023-09-12T14:24:42;26.90;99.90
28520;DHT22;15732;48.534;20.382;2023-09-12T14:27:09;26.90;99.90
28520;DHT22;15732;48.534;20.382;2023-09-12T14:29:37;26.90;99.90
28520;DHT22;15732;48.534;20.382;2023-09-12T14:32:09;26.90;99.90
28520;DHT22;15732;48.534;20.382;2023-09-12T14:34:36;26.90;99.90
28520;DHT22;15732;48.534;20.382;2023-09-12T14:37:03;26.90;99.90
28520;DHT22;15732;48.534;20.382;2023-09-12T14:39:30;26.90;99.90
28520;DHT22;15732;48.534;20.382;2023-09-12T14:42:01;26.90;99.90
28520;DHT22;15732;48.534;20.382;2023-09-12T14:44:32;26.80;99.90
28520;DHT22;15732;48.534;20.382;2023-09-12T14:46:59;26.80;99.90
28520;DHT22;15732;48.534;20.382;2023-09-12T14:49:26;26.80;99.90
28520;DHT22;15732;48.534;20.382;2023-09-12T14:51:54;26.80;99.90
28520;DHT22;15732;48.534;20.382;2023-09-12T14:54:21;26.80;99.90
28520;DHT22;15732;48.534;20.382;2023-09-12T14:56:49;26.80;99.90
28520;DHT22;15732;48.534;20.382;2023-09-12T14:59:20;26.80;99.90
28520;DHT22;15732;48.534;20.382;2023-09-12T15:01:47;26.80;99.90
28520;DHT22;15732;48.534;20.382;2023-09-12T15:04:15;26.80;99.90
28520;DHT22;15732;48.534;20.382;2023-09-12T15:06:42;26.80;99.90
28520;DHT22;15732;48.534;20.382;2023-09-12T15:09:09;26.80;99.90
28520;DHT22;15732;48.534;20.382;2023-09-12T15:11:37;26.80;99.90
28520;DHT22;15732;48.534;20.382;2023-09-12T15:14:04;26.80;99.90
28520;DHT22;15732;48.534;20.382;2023-09-12T15:16:32;26.80;99.90
28520;DHT22;15732;48.534;20.382;2023-09-12T15:19:01;26.80;99.90
28520;DHT22;15732;48.534;20.382;2023-09-12T15:21:31;26.70;99.90
28520;DHT22;15732;48.534;20.382;2023-09-12T15:23:59;26.70;99.90
28520;DHT22;15732;48.534;20.382;2023-09-12T15:26:26;26.60;99.90
28520;DHT22;15732;48.534;20.382;2023-09-12T15:28:53;26.60;99.90
28520;DHT22;15732;48.534;20.382;2023-09-12T15:31:21;26.60;99.90
28520;DHT22;15732;48.534;20.382;2023-09-12T15:33:48;26.60;99.90
28520;DHT22;15732;48.534;20.382;2023-09-12T15:36:15;26.60;99.90
28520;DHT22;15732;48.534;20.382;2023-09-12T15:38:42;26.60;99.90
28520;DHT22;15732;48.534;20.382;2023-09-12T15:41:10;26.50;99.90
28520;DHT22;15732;48.534;20.382;2023-09-12T15:43:38;26.50;99.90
28520;DHT22;15732;48.534;20.382;2023-09-12T15:46:05;26.40;99.90